Time;durP1;ratioP1;P1;durP2;ratioP2;P2;SDS_P1;SDS_P2;PMS_P1;PMS_P2;Temp;Humidity;BMP_temperature;BMP_pressure;BME280_temperature;BME280_humidity;BME280_pressure;Samples;Min_cycle;Max_cycle;Signal;HPM_P1;HPM_P2
2021/05/23 00:01:40;;;;;;;2.67;1.00;;;;;;;11.81;82.25;99892.00;662042;217;24770;-74
2021/05/23 00:04:08;;;;;;;5.73;1.00;;;;;;;11.82;81.48;99893.66;650255;220;24838;-74
2021/05/23 00:06:36;;;;;;;1.57;0.90;;;;;;;11.78;82.63;99894.91;667918;215;24772;-74
2021/05/23 00:09:04;;;;;;;0.97;0.87;;;;;;;11.83;82.26;99892.68;655940;218;24815;-73
2021/05/23 00:11:32;;;;;;;1.63;0.80;;;;;;;11.80;82.36;99896.07;655392;218;24797;-74
2021/05/23 00:14:00;;;;;;;0.70;0.70;;;;;;;11.79;82.61;99899.66;655600;218;24850;-73
2021/05/23 00:16:28;;;;;;;1.03;0.70;;;;;;;11.74;82.60;99898.81;653815;215;24776;-72
2021/05/23 00:18:56;;;;;;;1.53;0.80;;;;;;;11.70;82.48;99896.70;650702;220;24826;-74
2021/05/23 00:21:26;;;;;;;1.70;0.80;;;;;;;11.73;82.76;99898.97;649438;220;24800;-74
2021/05/23 00:23:52;;;;;;;0.87;0.80;;;;;;;11.70;82.67;99888.39;661726;216;24780;-73
2021/05/23 00:26:20;;;;;;;1.50;1.00;;;;;;;11.70;82.28;99883.18;665125;211;23780;-74
2021/05/23 00:28:49;;;;;;;1.20;0.80;;;;;;;11.68;83.61;99892.92;656838;218;24837;-74
2021/05/23 00:31:16;;;;;;;1.27;0.80;;;;;;;11.63;83.85;99908.71;648751;220;25018;-74
2021/05/23 00:33:44;;;;;;;1.20;0.90;;;;;;;11.72;83.27;99904.67;640722;221;32446;-74
2021/05/23 00:36:12;;;;;;;1.00;0.70;;;;;;;11.58;83.75;99910.50;666528;211;24884;-74
2021/05/23 00:38:40;;;;;;;1.07;0.73;;;;;;;11.56;83.97;99918.48;656260;218;24844;-74
2021/05/23 00:41:07;;;;;;;1.53;1.43;;;;;;;11.60;83.64;99915.88;654626;218;25169;-74
2021/05/23 00:43:35;;;;;;;2.20;1.00;;;;;;;11.72;83.14;99908.58;649310;218;32592;-74
2021/05/23 00:46:03;;;;;;;1.37;0.97;;;;;;;11.58;82.83;99914.41;654034;218;23726;-73
2021/05/23 00:48:31;;;;;;;1.10;0.90;;;;;;;11.72;83.23;99912.48;664658;216;24755;-74
2021/05/23 00:50:59;;;;;;;1.90;1.07;;;;;;;11.64;83.55;99914.25;663030;215;24782;-73
2021/05/23 00:53:27;;;;;;;2.10;0.73;;;;;;;11.76;82.82;99916.40;662990;216;24785;-74
2021/05/23 00:55:55;;;;;;;4.67;1.00;;;;;;;11.82;82.16;99917.11;664488;212;27960;-74
2021/05/23 00:58:23;;;;;;;1.80;0.83;;;;;;;11.83;82.24;99920.04;651060;220;24825;-74
2021/05/23 01:01:14;;;;;;;1.50;0.93;;;;;;;11.93;81.77;99917.75;652906;219;24829;-74
2021/05/23 01:03:53;;;;;;;2.03;0.70;;;;;;;11.82;81.59;99912.35;663752;215;24802;-73
2021/05/23 01:06:20;;;;;;;1.52;0.70;;;;;;;11.82;81.32;99905.38;660044;211;42999;-74
2021/05/23 01:08:49;;;;;;;1.70;0.77;;;;;;;11.73;81.99;99907.61;650488;220;23722;-74
2021/05/23 01:11:45;;;;;;;2.70;1.10;;;;;;;11.83;80.86;99903.59;652883;220;24857;-73
2021/05/23 01:14:17;;;;;;;1.50;0.70;;;;;;;12.36;78.77;99901.79;633096;219;32560;-74
2021/05/23 01:16:45;;;;;;;0.80;0.77;;;;;;;12.15;79.80;99901.48;659990;215;23706;-74
2021/05/23 01:19:14;;;;;;;2.90;1.13;;;;;;;12.01;79.99;99913.86;650194;220;24789;-74
2021/05/23 01:21:42;;;;;;;2.20;0.90;;;;;;;11.87;80.47;99929.16;651666;220;23827;-74
2021/05/23 01:24:10;;;;;;;2.50;0.63;;;;;;;11.91;80.08;99928.83;665797;215;24761;-74
2021/05/23 01:26:38;;;;;;;2.30;0.73;;;;;;;11.95;80.76;99934.04;665125;216;24772;-73
2021/05/23 01:29:07;;;;;;;1.43;0.90;;;;;;;11.84;79.84;99925.58;665234;215;23791;-74
2021/05/23 01:31:35;;;;;;;3.03;0.70;;;;;;;11.73;81.04;99935.45;663161;216;24779;-74
2021/05/23 01:34:03;;;;;;;2.50;0.87;;;;;;;11.53;81.52;99930.98;663139;215;24819;-73
2021/05/23 01:36:30;;;;;;;2.55;0.75;;;;;;;11.76;80.69;99932.52;661132;211;32341;-73
2021/05/23 01:38:58;;;;;;;1.70;0.67;;;;;;;11.67;80.74;99930.37;661102;216;23973;-73
2021/05/23 01:41:26;;;;;;;1.00;0.60;;;;;;;11.84;80.18;99941.70;657309;216;32280;-74
2021/05/23 01:43:54;;;;;;;2.90;1.10;;;;;;;11.82;80.11;99950.14;649407;220;23714;-74
2021/05/23 01:46:22;;;;;;;1.67;0.80;;;;;;;11.73;80.78;99959.71;651633;220;24833;-74
2021/05/23 01:48:50;;;;;;;1.80;1.00;;;;;;;11.75;81.21;99967.36;645426;221;24822;-74
2021/05/23 01:51:18;;;;;;;1.17;0.90;;;;;;;11.75;81.67;99972.09;664084;216;24781;-74
2021/05/23 01:53:46;;;;;;;1.87;0.80;;;;;;;11.93;80.95;99964.66;664907;215;24755;-74
2021/05/23 01:56:14;;;;;;;2.13;1.00;;;;;;;11.82;80.23;99960.56;650747;216;24814;-74
2021/05/23 01:58:42;;;;;;;2.87;1.10;;;;;;;11.63;81.79;99965.53;660672;217;24771;-73
2021/05/23 02:01:09;;;;;;;2.87;1.00;;;;;;;11.38;82.48;99971.13;662714;216;24790;-74
2021/05/23 02:03:37;;;;;;;2.30;1.20;;;;;;;11.39;82.71;99971.45;665289;216;25001;-73
2021/05/23 02:06:05;;;;;;;3.50;1.13;;;;;;;11.41;82.10;99976.05;663353;212;24777;-74
2021/05/23 02:08:33;;;;;;;1.83;0.90;;;;;;;11.33;83.19;99976.00;662062;216;24787;-74
2021/05/23 02:11:01;;;;;;;1.80;1.00;;;;;;;11.26;83.28;99984.93;664400;214;24779;-74
2021/05/23 02:13:29;;;;;;;4.43;1.03;;;;;;;11.18;83.53;99992.69;665484;212;24793;-74
2021/05/23 02:15:57;;;;;;;3.17;1.00;;;;;;;11.17;83.58;99998.86;665401;215;24761;-74
2021/05/23 02:18:25;;;;;;;1.03;0.90;;;;;;;11.21;83.24;99997.58;666051;216;24777;-73
2021/05/23 02:20:53;;;;;;;2.50;0.90;;;;;;;11.16;83.16;99998.53;663474;216;24762;-74
2021/05/23 02:23:21;;;;;;;1.70;0.90;;;;;;;11.11;83.06;99998.16;665709;216;24757;-74
2021/05/23 02:25:49;;;;;;;1.50;0.70;;;;;;;11.07;83.61;100002.05;663056;216;24870;-74
2021/05/23 02:28:17;;;;;;;1.00;0.80;;;;;;;11.08;82.81;99993.75;664320;216;24775;-73
2021/05/23 02:30:44;;;;;;;3.60;0.90;;;;;;;11.01;83.65;99994.87;660817;216;24777;-72
2021/05/23 02:33:12;;;;;;;1.73;0.70;;;;;;;11.03;83.72;99982.52;664360;216;24768;-74
2021/05/23 02:35:40;;;;;;;0.77;0.77;;;;;;;10.99;82.88;99991.61;663898;216;24761;-73
2021/05/23 02:38:08;;;;;;;1.40;0.90;;;;;;;10.86;83.75;99987.29;663010;216;25930;-73
2021/05/23 02:40:36;;;;;;;0.80;0.80;;;;;;;10.79;85.02;99987.55;663307;216;23817;-74
2021/05/23 02:43:04;;;;;;;0.90;0.80;;;;;;;10.74;85.28;100004.11;663614;216;24805;-74
2021/05/23 02:45:34;;;;;;;0.93;0.80;;;;;;;10.75;85.45;100014.36;662676;212;24777;-74
2021/05/23 02:48:01;;;;;;;2.13;0.90;;;;;;;10.60;86.37;100020.58;662579;216;23806;-73
2021/05/23 02:50:29;;;;;;;3.63;1.00;;;;;;;10.70;86.15;100023.92;657888;214;32355;-73
2021/05/23 02:52:57;;;;;;;2.60;0.90;;;;;;;10.62;85.82;100018.64;663102;216;24757;-73
2021/05/23 02:55:24;;;;;;;2.77;0.90;;;;;;;10.62;86.42;100025.14;663171;212;24759;-74
2021/05/23 02:57:52;;;;;;;1.10;0.70;;;;;;;10.60;85.69;100030.98;664909;216;24758;-74
2021/05/23 03:00:20;;;;;;;2.20;1.13;;;;;;;10.61;86.34;100034.40;662308;216;23785;-74
2021/05/23 03:02:48;;;;;;;1.87;0.80;;;;;;;10.55;86.24;100033.68;662549;216;29020;-74
2021/05/23 03:05:16;;;;;;;0.80;0.70;;;;;;;10.55;86.08;100042.78;663484;216;24778;-73
2021/05/23 03:07:44;;;;;;;2.10;0.80;;;;;;;10.55;86.27;100036.28;663778;215;24776;-74
2021/05/23 03:10:13;;;;;;;1.50;0.70;;;;;;;10.51;85.82;100042.27;665244;216;23785;-73
2021/05/23 03:12:41;;;;;;;2.30;0.90;;;;;;;10.50;86.76;100034.63;664419;216;24781;-73
2021/05/23 03:15:09;;;;;;;1.63;0.70;;;;;;;10.49;86.66;100039.00;664256;212;24756;-73
2021/05/23 03:17:37;;;;;;;2.00;0.90;;;;;;;10.55;86.72;100044.08;663529;216;23800;-74
2021/05/23 03:20:07;;;;;;;1.90;1.10;;;;;;;10.54;86.36;100044.56;665635;215;24772;-74
2021/05/23 03:22:35;;;;;;;2.20;0.80;;;;;;;10.43;86.70;100047.90;654355;218;24822;-74
2021/05/23 03:25:03;;;;;;;2.20;0.83;;;;;;;10.46;86.44;100044.99;656595;215;24839;-74
2021/05/23 03:27:31;;;;;;;1.07;0.80;;;;;;;10.41;87.83;100053.22;650835;220;24833;-73
2021/05/23 03:29:59;;;;;;;2.07;0.90;;;;;;;10.33;87.85;100048.77;650601;220;24818;-74
2021/05/23 03:32:28;;;;;;;3.57;0.93;;;;;;;10.29;88.50;100047.44;649538;220;24816;-74
2021/05/23 03:34:56;;;;;;;1.10;1.00;;;;;;;10.28;88.58;100057.50;665645;212;23786;-74
2021/05/23 03:37:24;;;;;;;1.90;0.97;;;;;;;10.28;88.60;100061.89;652680;220;23842;-74
2021/05/23 03:39:51;;;;;;;1.27;0.90;;;;;;;10.22;88.75;100063.27;661372;217;23828;-74
2021/05/23 03:42:19;;;;;;;2.20;0.80;;;;;;;10.25;88.68;100069.95;655271;214;33074;-73
2021/05/23 03:44:47;;;;;;;1.65;0.90;;;;;;;10.28;88.79;100078.78;659511;212;32356;-74
2021/05/23 03:47:15;;;;;;;2.47;1.00;;;;;;;10.24;88.32;100076.94;659423;215;32359;-73
2021/05/23 03:49:43;;;;;;;3.27;0.90;;;;;;;10.15;89.10;100082.18;662409;216;23710;-73
2021/05/23 03:52:11;;;;;;;2.13;0.90;;;;;;;10.09;89.98;100084.86;662254;216;24766;-74
2021/05/23 03:54:39;;;;;;;1.80;1.07;;;;;;;9.98;90.74;100095.44;665462;216;24817;-73
2021/05/23 03:57:07;;;;;;;3.90;0.90;;;;;;;10.05;89.78;100095.21;665592;216;23844;-73
2021/05/23 03:59:35;;;;;;;1.30;0.77;;;;;;;10.11;89.36;100103.23;661780;217;24766;-74
2021/05/23 04:02:03;;;;;;;1.97;1.00;;;;;;;10.15;89.06;100104.27;653611;219;23835;-73
2021/05/23 04:04:45;;;;;;;1.20;0.93;;;;;;;10.18;88.77;100103.97;655332;215;23861;-72
2021/05/23 04:07:04;;;;;;;3.17;1.10;;;;;;;10.21;88.93;100116.22;655678;218;28165;-74
2021/05/23 04:09:31;;;;;;;3.10;1.00;;;;;;;10.20;88.63;100118.45;655609;218;28069;-73
2021/05/23 04:11:59;;;;;;;2.57;1.00;;;;;;;10.32;89.42;100128.20;653925;218;31193;-73
2021/05/23 04:14:28;;;;;;;1.00;0.80;;;;;;;10.45;88.02;100129.16;656569;218;24846;-73
2021/05/23 04:16:55;;;;;;;1.33;0.70;;;;;;;10.44;88.13;100136.14;657820;218;24843;-74
2021/05/23 04:19:23;;;;;;;2.60;1.00;;;;;;;10.69;87.71;100137.19;656949;218;25066;-73
2021/05/23 04:21:51;;;;;;;0.90;0.90;;;;;;;10.67;87.01;100141.73;653500;218;24846;-74
2021/05/23 04:24:19;;;;;;;2.00;0.80;;;;;;;10.81;87.26;100139.91;657178;218;24813;-74
2021/05/23 04:26:47;;;;;;;1.40;0.70;;;;;;;10.79;86.73;100149.66;655395;218;24807;-74
2021/05/23 04:29:15;;;;;;;0.80;0.80;;;;;;;10.74;86.47;100151.08;659379;218;24734;-74
2021/05/23 04:31:43;;;;;;;1.70;0.90;;;;;;;10.96;86.51;100154.03;649604;219;23657;-74
2021/05/23 04:34:12;;;;;;;1.97;0.80;;;;;;;10.96;86.02;100156.64;651289;217;24812;-74
2021/05/23 04:36:38;;;;;;;1.43;1.00;;;;;;;11.16;85.52;100156.50;646317;218;29129;-74
2021/05/23 04:39:06;;;;;;;1.67;0.90;;;;;;;11.01;86.00;100160.12;648732;218;24843;-74
2021/05/23 04:41:34;;;;;;;1.57;0.90;;;;;;;10.96;85.69;100166.23;649578;218;24861;-74
2021/05/23 04:44:05;;;;;;;1.40;0.97;;;;;;;10.91;85.88;100170.59;652341;218;24799;-74
2021/05/23 04:46:30;;;;;;;1.80;0.80;;;;;;;10.70;86.39;100173.48;647370;218;25083;-73
2021/05/23 04:48:58;;;;;;;2.50;0.80;;;;;;;10.88;86.45;100165.69;641087;221;39547;-73
2021/05/23 04:51:26;;;;;;;3.77;1.30;;;;;;;10.93;86.45;100175.64;663520;216;24770;-73
2021/05/23 04:53:55;;;;;;;1.50;0.97;;;;;;;10.91;85.68;100180.18;662624;216;24782;-73
2021/05/23 04:56:23;;;;;;;2.70;0.77;;;;;;;10.89;86.13;100182.94;663793;216;24808;-74
2021/05/23 04:58:51;;;;;;;2.80;0.90;;;;;;;10.89;85.67;100184.23;666192;215;24789;-74
2021/05/23 05:01:19;;;;;;;1.47;0.90;;;;;;;11.00;85.87;100178.00;653996;218;24807;-74
2021/05/23 05:03:47;;;;;;;1.93;0.93;;;;;;;10.95;84.77;100174.52;658663;218;24798;-73
2021/05/23 05:06:15;;;;;;;4.80;0.93;;;;;;;11.05;84.32;100185.35;660154;217;24763;-73
2021/05/23 05:08:43;;;;;;;3.63;0.87;;;;;;;11.14;84.79;100185.77;649158;220;24854;-73
2021/05/23 05:11:10;;;;;;;1.00;0.90;;;;;;;11.18;83.74;100196.21;648797;220;24789;-72
2021/05/23 05:13:38;;;;;;;1.67;0.90;;;;;;;11.24;84.81;100194.30;664012;215;25024;-74
2021/05/23 05:16:08;;;;;;;2.30;0.97;;;;;;;11.27;84.38;100198.74;663802;212;23770;-74
2021/05/23 05:18:35;;;;;;;1.90;1.13;;;;;;;11.43;83.37;100202.45;652122;220;24811;-74
2021/05/23 05:21:03;;;;;;;1.63;0.73;;;;;;;11.42;83.94;100194.30;662485;216;24815;-73
2021/05/23 05:23:31;;;;;;;1.83;0.90;;;;;;;11.44;83.17;100200.17;662093;216;24757;-73
2021/05/23 05:26:00;;;;;;;4.60;0.90;;;;;;;11.79;82.93;100202.72;656872;212;32326;-73
2021/05/23 05:28:27;;;;;;;3.40;1.20;;;;;;;11.50;83.46;100206.06;663249;214;24897;-73
2021/05/23 05:30:55;;;;;;;1.00;0.83;;;;;;;11.45;83.62;100211.73;663483;216;24785;-73
2021/05/23 05:33:23;;;;;;;2.23;0.90;;;;;;;11.47;83.56;100211.58;664719;216;24770;-73
2021/05/23 05:35:50;;;;;;;1.63;0.77;;;;;;;11.41;82.93;100219.53;664824;212;24900;-73
2021/05/23 05:38:18;;;;;;;1.23;0.60;;;;;;;11.29;82.98;100218.94;663545;216;24779;-71
2021/05/23 05:40:46;;;;;;;2.90;1.10;;;;;;;11.40;83.40;100226.16;663904;216;24773;-73
2021/05/23 05:43:14;;;;;;;1.27;0.87;;;;;;;11.77;81.69;100226.78;664288;216;24878;-73
2021/05/23 05:45:42;;;;;;;1.27;0.90;;;;;;;11.91;82.41;100225.92;664500;212;24774;-71
2021/05/23 05:48:10;;;;;;;2.40;0.90;;;;;;;12.29;80.42;100218.98;664289;215;24764;-71
2021/05/23 05:50:38;;;;;;;1.83;1.00;;;;;;;12.05;79.76;100217.55;664609;215;24802;-73
2021/05/23 05:53:06;;;;;;;1.27;0.80;;;;;;;12.18;81.34;100227.88;665682;216;24788;-72
2021/05/23 05:55:34;;;;;;;1.60;0.80;;;;;;;12.16;80.86;100230.32;664107;212;24760;-72
2021/05/23 05:58:02;;;;;;;1.00;0.90;;;;;;;11.97;80.25;100232.66;663605;216;24801;-73
2021/05/23 06:00:30;;;;;;;0.80;0.77;;;;;;;11.98;79.54;100233.48;663642;216;24799;-73
2021/05/23 06:03:01;;;;;;;2.43;0.70;;;;;;;12.43;79.71;100232.73;663809;216;27983;-72
2021/05/23 06:05:26;;;;;;;1.57;1.13;;;;;;;12.14;79.74;100241.39;662821;216;23847;-73
2021/05/23 06:07:54;;;;;;;2.70;0.80;;;;;;;11.96;79.78;100238.00;658737;216;32754;-75
2021/05/23 06:10:22;;;;;;;3.57;1.00;;;;;;;11.96;80.16;100238.00;657788;216;42949;-75
2021/05/23 06:12:50;;;;;;;5.57;1.17;;;;;;;12.07;80.21;100242.97;663738;216;23791;-75
2021/05/23 06:15:18;;;;;;;1.87;0.93;;;;;;;12.05;79.39;100240.52;663932;212;23798;-76
2021/05/23 06:17:45;;;;;;;2.03;0.93;;;;;;;12.39;78.85;100243.16;657103;216;26074;-76
2021/05/23 06:20:14;;;;;;;3.40;0.97;;;;;;;12.27;78.65;100243.09;663593;216;24774;-75
2021/05/23 06:22:42;;;;;;;1.47;0.90;;;;;;;12.44;78.97;100248.72;663043;216;24782;-76
2021/05/23 06:25:11;;;;;;;1.50;0.90;;;;;;;12.68;79.11;100255.83;664443;212;23794;-73
2021/05/23 06:27:39;;;;;;;1.87;0.70;;;;;;;13.10;79.26;100253.67;663799;216;24786;-74
2021/05/23 06:30:09;;;;;;;1.33;0.87;;;;;;;13.24;75.62;100240.50;663691;216;24858;-73
2021/05/23 06:32:37;;;;;;;1.67;1.00;;;;;;;13.17;76.14;100229.02;663282;216;23797;-73
2021/05/23 06:35:05;;;;;;;1.77;0.90;;;;;;;13.24;75.73;100236.58;665007;212;24784;-73
2021/05/23 06:37:33;;;;;;;2.70;0.80;;;;;;;12.77;75.15;100239.70;662688;216;24832;-72
2021/05/23 06:40:01;;;;;;;3.57;1.03;;;;;;;12.98;74.57;100240.59;664190;216;24767;-72
2021/05/23 06:42:29;;;;;;;1.63;0.80;;;;;;;12.84;74.18;100244.63;661736;216;24793;-73
2021/05/23 06:44:57;;;;;;;3.17;1.20;;;;;;;12.86;75.65;100247.08;658411;216;23798;-73
2021/05/23 06:47:25;;;;;;;1.60;0.87;;;;;;;12.70;75.25;100259.09;663397;216;24791;-73
2021/05/23 06:49:53;;;;;;;1.27;1.00;;;;;;;12.60;75.35;100257.58;661744;216;24763;-73
2021/05/23 06:52:21;;;;;;;1.00;0.80;;;;;;;12.76;74.65;100264.98;664096;216;24781;-73
2021/05/23 06:54:49;;;;;;;2.60;0.90;;;;;;;12.95;74.27;100265.22;663245;216;24802;-73
2021/05/23 06:57:17;;;;;;;2.07;0.70;;;;;;;13.08;73.97;100262.12;663911;215;24148;-73
2021/05/23 06:59:44;;;;;;;1.63;1.00;;;;;;;12.98;74.75;100259.67;665888;215;24980;-73
2021/05/23 07:02:12;;;;;;;1.10;0.80;;;;;;;13.31;75.04;100262.38;665273;215;24778;-71
2021/05/23 07:04:40;;;;;;;2.20;0.80;;;;;;;13.46;73.26;100258.63;664413;216;24830;-70
2021/05/23 07:07:08;;;;;;;2.77;0.90;;;;;;;13.69;71.06;100254.88;665263;216;23785;-73
2021/05/23 07:09:36;;;;;;;2.00;0.80;;;;;;;14.48;70.29;100254.08;664526;216;24781;-72
2021/05/23 07:12:04;;;;;;;1.80;0.60;;;;;;;13.26;71.97;100262.05;663986;216;24798;-73
2021/05/23 07:14:32;;;;;;;1.17;0.70;;;;;;;13.18;73.51;100256.77;663640;214;24768;-73
2021/05/23 07:17:00;;;;;;;1.90;0.90;;;;;;;13.34;73.51;100260.24;662067;216;23779;-72
2021/05/23 07:19:28;;;;;;;1.63;0.90;;;;;;;13.39;73.18;100268.11;662198;216;24799;-73
2021/05/23 07:21:56;;;;;;;1.73;0.80;;;;;;;13.41;73.32;100260.92;662649;216;23800;-71
2021/05/23 07:24:24;;;;;;;0.83;0.77;;;;;;;13.27;74.19;100280.66;662718;216;24764;-73
2021/05/23 07:26:52;;;;;;;1.30;0.70;;;;;;;13.04;74.05;100276.00;663192;216;24759;-73
2021/05/23 07:29:20;;;;;;;4.20;1.20;;;;;;;12.99;74.30;100274.36;664077;214;24760;-73
2021/05/23 07:31:48;;;;;;;2.40;1.27;;;;;;;13.49;74.25;100277.89;663009;216;24795;-74
2021/05/23 07:34:16;;;;;;;1.83;1.03;;;;;;;13.48;71.86;100276.27;664344;212;24843;-73
2021/05/23 07:36:44;;;;;;;1.50;0.90;;;;;;;13.95;70.39;100272.02;657716;216;24833;-73
2021/05/23 07:39:12;;;;;;;3.40;0.80;;;;;;;14.19;70.20;100271.14;662889;216;24765;-73
2021/05/23 07:41:40;;;;;;;2.47;0.90;;;;;;;13.89;71.53;100274.47;662301;216;24766;-73
2021/05/23 07:44:08;;;;;;;1.33;0.70;;;;;;;13.76;72.87;100277.57;662623;216;24769;-72
2021/05/23 07:46:36;;;;;;;2.50;0.90;;;;;;;13.32;72.08;100283.59;663239;216;24779;-73
2021/05/23 07:49:04;;;;;;;4.30;0.97;;;;;;;13.50;71.66;100290.79;662973;216;24835;-72
2021/05/23 07:51:32;;;;;;;1.43;0.87;;;;;;;13.26;72.66;100289.47;662961;216;30539;-73
2021/05/23 07:54:00;;;;;;;2.53;1.00;;;;;;;13.14;73.09;100301.98;662510;216;23801;-72
2021/05/23 07:56:28;;;;;;;2.40;0.97;;;;;;;13.38;74.00;100297.34;662120;212;24790;-72
2021/05/23 07:58:56;;;;;;;2.37;1.57;;;;;;;13.72;73.77;100302.41;663551;214;23802;-72
2021/05/23 08:01:24;;;;;;;2.67;1.03;;;;;;;13.78;72.63;100300.44;663143;216;24774;-71
2021/05/23 08:03:52;;;;;;;2.13;0.70;;;;;;;14.16;71.21;100289.79;664173;216;24842;-72
2021/05/23 08:06:21;;;;;;;3.17;1.00;;;;;;;14.19;70.86;100299.91;662785;215;23817;-73
2021/05/23 08:08:49;;;;;;;3.07;1.07;;;;;;;15.15;70.65;100302.88;662629;215;23835;-73
2021/05/23 08:11:18;;;;;;;4.47;1.30;;;;;;;15.62;68.74;100290.12;664400;215;23846;-73
2021/05/23 08:13:46;;;;;;;2.00;1.00;;;;;;;14.76;70.72;100294.54;663528;215;23831;-74
2021/05/23 08:16:14;;;;;;;4.43;1.20;;;;;;;14.70;68.86;100300.47;664881;212;23793;-74
2021/05/23 08:18:42;;;;;;;2.33;0.90;;;;;;;13.93;68.98;100306.67;662607;216;23801;-74
2021/05/23 08:21:09;;;;;;;1.00;0.80;;;;;;;13.58;71.38;100313.02;665688;215;23789;-74
2021/05/23 08:23:37;;;;;;;0.90;0.77;;;;;;;13.42;71.48;100305.66;662956;216;23784;-74
2021/05/23 08:26:05;;;;;;;4.20;0.80;;;;;;;13.45;71.19;100317.91;664253;216;23800;-75
2021/05/23 08:28:33;;;;;;;3.13;0.80;;;;;;;13.43;72.28;100327.70;662846;216;24821;-73
2021/05/23 08:31:01;;;;;;;2.12;0.80;;;;;;;13.77;72.29;100329.36;658384;216;32626;-73
2021/05/23 08:33:30;;;;;;;4.77;1.00;;;;;;;13.87;72.18;100328.72;664952;216;23687;-73
2021/05/23 08:35:57;;;;;;;1.97;0.80;;;;;;;14.34;71.10;100321.47;664642;212;23842;-73
2021/05/23 08:38:25;;;;;;;2.20;0.72;;;;;;;14.35;70.78;100323.92;659180;215;32599;-73
2021/05/23 08:40:53;;;;;;;1.10;0.90;;;;;;;13.90;72.13;100323.97;666570;215;22701;-73
2021/05/23 08:43:25;;;;;;;5.40;0.83;;;;;;;13.73;72.28;100328.06;655717;217;24831;-73
2021/05/23 08:45:50;;;;;;;1.57;0.90;;;;;;;13.87;73.89;100334.77;658323;218;23742;-72
2021/05/23 08:48:18;;;;;;;0.80;0.80;;;;;;;13.91;72.62;100328.71;651782;220;23818;-74
2021/05/23 08:50:46;;;;;;;5.13;0.90;;;;;;;14.36;72.04;100335.23;644897;220;23877;-72
2021/05/23 08:53:14;;;;;;;1.93;0.80;;;;;;;14.14;72.66;100327.08;652414;220;24839;-73
2021/05/23 08:55:43;;;;;;;4.23;0.90;;;;;;;14.29;71.47;100328.52;664135;215;23806;-73
2021/05/23 08:58:11;;;;;;;1.30;0.80;;;;;;;14.30;71.14;100329.34;650636;220;26985;-74
2021/05/23 09:00:39;;;;;;;1.77;0.87;;;;;;;14.76;71.26;100331.20;649042;220;23856;-73
2021/05/23 09:03:07;;;;;;;1.47;0.90;;;;;;;15.04;71.17;100327.64;663000;214;30093;-72
2021/05/23 09:05:35;;;;;;;2.53;0.80;;;;;;;14.14;70.39;100320.53;661510;215;25890;-74
2021/05/23 09:08:03;;;;;;;2.00;0.90;;;;;;;14.22;71.49;100327.56;662584;216;23894;-74
2021/05/23 09:10:31;;;;;;;3.60;1.27;;;;;;;14.65;69.84;100331.59;662485;216;23801;-73
2021/05/23 09:12:59;;;;;;;2.50;0.90;;;;;;;14.65;71.50;100337.32;664029;216;24880;-74
2021/05/23 09:15:27;;;;;;;2.93;0.80;;;;;;;13.99;71.42;100341.80;662495;216;23844;-73
2021/05/23 09:18:03;;;;;;;2.00;0.73;;;;;;;13.94;72.53;100348.02;661699;216;24787;-73
2021/05/23 09:20:31;;;;;;;1.67;0.77;;;;;;;13.88;71.78;100351.27;664515;214;24741;-73
2021/05/23 09:23:01;;;;;;;1.53;0.80;;;;;;;13.79;72.55;100349.13;665135;215;23785;-73
2021/05/23 09:25:29;;;;;;;1.57;0.80;;;;;;;13.69;73.64;100347.67;663972;212;24755;-74
2021/05/23 09:27:57;;;;;;;2.87;0.80;;;;;;;14.05;73.35;100352.90;658309;216;32478;-73
2021/05/23 09:30:27;;;;;;;1.43;0.60;;;;;;;14.13;72.11;100351.59;664161;216;22700;-73
2021/05/23 09:32:56;;;;;;;1.93;0.90;;;;;;;14.39;71.36;100346.17;664455;216;23775;-73
2021/05/23 09:35:21;;;;;;;2.83;0.70;;;;;;;14.57;71.11;100338.14;662080;216;30099;-74
2021/05/23 09:37:59;;;;;;;3.67;0.90;;;;;;;14.71;70.11;100334.02;664599;216;24758;-73
2021/05/23 09:40:27;;;;;;;2.30;0.70;;;;;;;14.28;69.60;100332.13;663742;216;24798;-73
2021/05/23 09:42:55;;;;;;;5.10;1.00;;;;;;;14.25;69.12;100335.89;663156;216;24790;-73
2021/05/23 09:45:23;;;;;;;3.10;0.97;;;;;;;14.13;70.53;100344.25;664651;212;24077;-74
2021/05/23 09:47:53;;;;;;;4.23;1.00;;;;;;;14.22;70.06;100341.47;664132;216;23786;-73
2021/05/23 09:50:32;;;;;;;1.87;0.80;;;;;;;14.55;69.21;100339.63;664039;214;30111;-72
2021/05/23 09:53:00;;;;;;;2.00;0.90;;;;;;;14.85;68.58;100341.16;658947;216;24785;-74
2021/05/23 09:55:28;;;;;;;2.00;1.00;;;;;;;15.20;65.89;100333.33;664486;212;25030;-73
2021/05/23 09:57:56;;;;;;;2.73;1.00;;;;;;;14.74;67.80;100338.41;658552;216;25858;-74
2021/05/23 10:00:24;;;;;;;2.20;1.00;;;;;;;14.58;67.57;100346.31;664143;214;24800;-73
2021/05/23 10:02:53;;;;;;;4.37;1.30;;;;;;;14.14;69.91;100362.39;663340;216;24955;-74
2021/05/23 10:05:21;;;;;;;3.07;1.00;;;;;;;14.15;72.21;100374.48;662186;216;24784;-74
2021/05/23 10:07:48;;;;;;;2.00;0.80;;;;;;;13.58;75.17;100390.61;667844;214;26913;-74
2021/05/23 10:10:16;;;;;;;1.47;1.00;;;;;;;13.46;78.07;100400.54;656866;218;23849;-74
2021/05/23 10:12:44;;;;;;;2.40;1.20;;;;;;;13.75;80.06;100407.14;651640;218;23847;-74
2021/05/23 10:15:12;;;;;;;2.20;0.90;;;;;;;14.58;76.25;100390.81;653459;218;24872;-73
2021/05/23 10:17:40;;;;;;;6.40;1.30;;;;;;;15.10;75.27;100386.42;651650;218;23824;-74
2021/05/23 10:20:09;;;;;;;2.93;0.90;;;;;;;15.44;71.50;100365.92;656489;218;24825;-74
2021/05/23 10:22:37;;;;;;;6.33;1.10;;;;;;;15.66;71.94;100363.05;652575;218;23828;-74
2021/05/23 10:25:06;;;;;;;4.00;1.10;;;;;;;16.26;69.12;100354.35;648560;220;24850;-74
2021/05/23 10:27:35;;;;;;;1.50;0.80;;;;;;;15.89;67.09;100348.59;666888;213;27987;-73
2021/05/23 10:30:03;;;;;;;6.10;1.00;;;;;;;16.03;66.45;100345.70;647986;220;24816;-74
2021/05/23 10:32:31;;;;;;;4.53;1.63;;;;;;;15.51;67.17;100345.09;665337;213;23812;-74
2021/05/23 10:35:00;;;;;;;5.70;1.20;;;;;;;15.18;67.22;100344.44;661522;215;23825;-73
2021/05/23 10:37:28;;;;;;;4.10;0.93;;;;;;;15.31;66.82;100346.02;664122;215;23818;-74
2021/05/23 10:39:57;;;;;;;3.90;1.00;;;;;;;15.26;65.79;100360.62;662958;215;32644;-73
2021/05/23 10:42:26;;;;;;;1.95;1.00;;;;;;;14.91;65.12;100344.89;651921;218;32919;-75
2021/05/23 10:44:51;;;;;;;3.20;1.00;;;;;;;15.78;65.21;100338.55;646143;216;32561;-75
2021/05/23 10:47:21;;;;;;;1.73;0.80;;;;;;;15.43;63.44;100343.81;664749;215;22712;-75
2021/05/23 10:49:52;;;;;;;2.30;0.80;;;;;;;15.81;66.64;100338.68;658677;218;24813;-75
2021/05/23 10:52:20;;;;;;;2.87;1.03;;;;;;;15.72;64.71;100345.78;656925;217;23760;-75
2021/05/23 10:54:56;;;;;;;3.97;0.93;;;;;;;16.17;64.18;100342.29;650878;219;23850;-76
2021/05/23 10:57:23;;;;;;;3.20;0.90;;;;;;;16.41;63.28;100348.31;652523;220;23848;-75
2021/05/23 10:59:58;;;;;;;2.23;1.27;;;;;;;16.67;63.10;100336.05;652610;219;24849;-75
2021/05/23 11:02:35;;;;;;;2.97;1.00;;;;;;;16.24;61.07;100320.10;659663;217;23768;-75
2021/05/23 11:05:07;;;;;;;3.87;0.80;;;;;;;16.13;59.91;100332.34;645383;219;43274;-75
2021/05/23 11:07:35;;;;;;;5.23;0.90;;;;;;;16.01;60.06;100318.33;650336;220;24813;-75
2021/05/23 11:10:14;;;;;;;2.83;1.00;;;;;;;16.13;60.01;100310.03;664208;216;27007;-74
2021/05/23 11:12:49;;;;;;;4.13;1.10;;;;;;;16.06;59.59;100307.32;664699;215;23808;-75
2021/05/23 11:15:17;;;;;;;1.83;1.00;;;;;;;15.58;60.15;100317.17;662971;216;23794;-76
2021/05/23 11:17:45;;;;;;;4.97;0.80;;;;;;;15.27;61.62;100321.64;658136;216;29248;-75
2021/05/23 11:20:17;;;;;;;5.17;1.10;;;;;;;15.16;62.52;100335.94;661590;216;23770;-76
2021/05/23 11:22:46;;;;;;;1.00;0.83;;;;;;;15.13;62.48;100339.73;659771;216;24770;-76
2021/05/23 11:25:15;;;;;;;2.73;0.93;;;;;;;15.12;64.07;100334.66;662915;212;23791;-74
2021/05/23 11:27:43;;;;;;;2.77;0.97;;;;;;;15.01;67.38;100354.69;663308;216;23900;-75
2021/05/23 11:30:12;;;;;;;4.57;1.00;;;;;;;14.94;67.43;100356.36;664417;216;24780;-75
2021/05/23 11:32:40;;;;;;;2.80;1.00;;;;;;;15.25;65.33;100357.69;664857;216;23803;-76